Time;durP1;ratioP1;P1;durP2;ratioP2;P2;SDS_P1;SDS_P2;PMS_P1;PMS_P2;Temp;Humidity;BMP_temperature;BMP_pressure;BME280_temperature;BME280_humidity;BME280_pressure;Samples;Min_cycle;Max_cycle;Signal;HPM_P1;HPM_P2
2021/09/11 00:00:58;;;;;;;6.50;4.60;;;20.40;72.40;;;;;;4984939;28;20430;-82
2021/09/11 00:03:24;;;;;;;5.03;4.53;;;20.50;72.40;;;;;;5001739;28;20195;-83
2021/09/11 00:05:50;;;;;;;6.83;4.53;;;20.50;72.40;;;;;;5002011;28;20211;-83
2021/09/11 00:08:16;;;;;;;6.30;4.30;;;20.60;72.10;;;;;;5002816;28;20494;-83
2021/09/11 00:10:41;;;;;;;5.70;4.40;;;20.50;72.10;;;;;;5002569;28;20457;-84
2021/09/11 00:13:07;;;;;;;5.83;5.23;;;20.50;72.10;;;;;;5003032;28;20318;-84
2021/09/11 00:15:33;;;;;;;5.70;4.40;;;20.50;72.30;;;;;;4987781;28;20271;-84
2021/09/11 00:18:00;;;;;;;6.60;5.33;;;20.40;72.20;;;;;;4990606;28;20179;-84
2021/09/11 00:20:27;;;;;;;6.35;5.15;;;20.40;73.10;;;;;;5004933;28;20197;-83
2021/09/11 00:22:52;;;;;;;6.80;4.93;;;20.30;72.50;;;;;;4968948;28;20267;-83
2021/09/11 00:25:18;;;;;;;5.17;4.23;;;20.30;72.60;;;;;;5004059;28;20187;-83
2021/09/11 00:27:44;;;;;;;6.53;4.90;;;20.40;72.50;;;;;;4987063;28;20213;-83
2021/09/11 00:30:10;;;;;;;7.00;4.10;;;20.40;72.50;;;;;;5004169;28;20172;-83
2021/09/11 00:32:36;;;;;;;5.32;4.22;;;20.30;72.60;;;;;;5003432;28;20934;-83
2021/09/11 00:35:02;;;;;;;9.57;5.77;;;20.20;72.80;;;;;;5003666;28;20178;-83
2021/09/11 00:37:28;;;;;;;8.02;4.55;;;20.30;72.60;;;;;;4991073;28;20238;-83
2021/09/11 00:39:54;;;;;;;5.67;4.43;;;20.20;72.50;;;;;;5005027;28;20171;-83
2021/09/11 00:42:19;;;;;;;6.33;4.00;;;20.20;72.60;;;;;;4987129;28;20439;-83
2021/09/11 00:44:45;;;;;;;5.13;4.17;;;20.20;72.70;;;;;;5006277;28;20565;-84
2021/09/11 00:47:11;;;;;;;7.33;5.30;;;20.10;72.70;;;;;;4987180;28;20233;-84
2021/09/11 00:49:36;;;;;;;12.57;4.50;;;20.00;72.90;;;;;;5006855;28;20179;-83
2021/09/11 00:52:02;;;;;;;4.43;4.00;;;20.20;72.80;;;;;;4992405;28;20202;-83
2021/09/11 00:54:29;;;;;;;11.20;4.30;;;20.30;72.70;;;;;;5001279;28;20183;-82
2021/09/11 00:56:55;;;;;;;5.10;4.22;;;20.30;72.40;;;;;;5018362;28;20418;-82
2021/09/11 00:59:21;;;;;;;10.25;4.68;;;20.10;72.40;;;;;;5001541;28;20187;-82
2021/09/11 01:01:47;;;;;;;5.90;4.60;;;20.10;72.50;;;;;;4999533;28;20226;-83
2021/09/11 01:04:13;;;;;;;4.33;3.93;;;20.20;72.60;;;;;;5001384;28;20187;-82
2021/09/11 01:06:39;;;;;;;4.83;4.13;;;20.30;72.20;;;;;;4982920;28;20450;-83
2021/09/11 01:09:04;;;;;;;8.90;4.23;;;20.30;72.20;;;;;;5002068;28;20186;-83
2021/09/11 01:11:31;;;;;;;4.73;3.60;;;20.30;71.90;;;;;;4982938;28;20290;-83
2021/09/11 01:13:58;;;;;;;5.85;4.00;;;20.30;71.80;;;;;;5001013;28;20515;-84
2021/09/11 01:16:25;;;;;;;7.03;4.50;;;20.30;71.80;;;;;;5001414;28;20179;-83
2021/09/11 01:18:51;;;;;;;6.10;4.22;;;20.20;71.70;;;;;;4983758;28;20241;-83
2021/09/11 01:21:16;;;;;;;5.97;3.90;;;20.40;71.50;;;;;;4983078;28;20214;-84
2021/09/11 01:23:42;;;;;;;5.03;4.27;;;20.40;71.30;;;;;;4982803;28;20453;-84
2021/09/11 01:26:08;;;;;;;5.27;3.93;;;20.40;71.20;;;;;;4983589;28;20191;-83
2021/09/11 01:28:34;;;;;;;6.20;4.20;;;20.50;71.00;;;;;;4983192;28;20184;-84
2021/09/11 01:31:00;;;;;;;5.82;3.95;;;20.40;70.80;;;;;;4982597;28;20489;-84
2021/09/11 01:33:25;;;;;;;8.33;3.43;;;20.40;70.90;;;;;;4986120;28;20211;-83
2021/09/11 01:35:54;;;;;;;4.63;3.70;;;20.70;70.60;;;;;;4986892;28;20266;-83
2021/09/11 01:38:20;;;;;;;5.13;3.42;;;20.70;70.20;;;;;;5006271;28;20175;-83
2021/09/11 01:40:46;;;;;;;8.73;4.70;;;20.60;70.10;;;;;;5004380;28;20189;-83
2021/09/11 01:43:12;;;;;;;4.83;3.27;;;20.50;70.50;;;;;;4986208;28;20199;-84
2021/09/11 01:45:37;;;;;;;4.63;3.67;;;20.60;70.60;;;;;;5006265;28;20194;-84
2021/09/11 01:48:03;;;;;;;9.20;3.57;;;20.60;70.50;;;;;;5001488;28;20171;-83
2021/09/11 01:50:29;;;;;;;7.60;3.70;;;20.60;70.10;;;;;;4984035;28;20187;-84
2021/09/11 01:52:56;;;;;;;6.27;3.87;;;20.50;70.40;;;;;;4981938;28;20357;-84
2021/09/11 01:55:23;;;;;;;8.70;3.80;;;20.60;70.40;;;;;;4981562;28;20422;-83
2021/09/11 01:57:49;;;;;;;5.03;3.65;;;20.80;70.10;;;;;;4999556;28;20205;-83
2021/09/11 02:00:17;;;;;;;4.85;4.38;;;20.60;70.00;;;;;;4999931;28;20172;-83
2021/09/11 02:02:43;;;;;;;5.32;3.83;;;20.50;70.20;;;;;;4982195;28;20195;-84
2021/09/11 02:05:11;;;;;;;5.68;4.20;;;20.60;70.40;;;;;;4999619;28;20635;-84
2021/09/11 02:07:38;;;;;;;11.73;3.50;;;20.60;70.20;;;;;;4981828;28;20237;-84
2021/09/11 02:10:05;;;;;;;5.38;3.40;;;20.50;70.50;;;;;;4982744;28;20175;-84
2021/09/11 02:12:31;;;;;;;8.18;3.83;;;20.70;70.50;;;;;;4982679;28;20625;-84
2021/09/11 02:14:57;;;;;;;6.33;4.00;;;20.60;70.10;;;;;;5001320;28;20206;-83
2021/09/11 02:17:23;;;;;;;4.77;3.00;;;20.60;70.20;;;;;;5003337;28;20413;-85
2021/09/11 02:19:49;;;;;;;5.40;4.07;;;20.50;70.40;;;;;;4986590;28;20222;-84
2021/09/11 02:22:15;;;;;;;17.40;5.50;;;20.70;70.40;;;;;;4985638;28;20535;-85
2021/09/11 02:24:41;;;;;;;5.38;3.35;;;20.90;69.80;;;;;;4995252;28;20205;-84
2021/09/11 02:27:07;;;;;;;5.28;3.70;;;20.60;69.70;;;;;;4984800;28;20543;-83
2021/09/11 02:29:33;;;;;;;4.03;3.53;;;20.60;70.10;;;;;;4966623;28;20179;-84
2021/09/11 02:32:01;;;;;;;6.70;3.77;;;20.60;70.20;;;;;;4965574;28;20529;-84
2021/09/11 02:34:28;;;;;;;7.43;3.97;;;20.50;70.20;;;;;;4967428;28;20239;-83
2021/09/11 02:36:54;;;;;;;5.85;3.95;;;20.40;71.20;;;;;;4968873;28;20534;-83
2021/09/11 02:39:20;;;;;;;6.17;3.33;;;20.30;70.90;;;;;;4988099;28;20207;-84
2021/09/11 02:41:46;;;;;;;12.70;3.75;;;20.40;70.90;;;;;;4985516;28;20180;-84
2021/09/11 02:44:12;;;;;;;13.53;4.10;;;20.40;70.90;;;;;;4951790;28;20303;-83
2021/09/11 02:46:38;;;;;;;8.27;4.20;;;20.50;71.00;;;;;;4984253;28;20459;-84
2021/09/11 02:49:05;;;;;;;7.70;3.90;;;20.40;70.80;;;;;;4987285;28;20235;-83
2021/09/11 02:51:31;;;;;;;5.60;3.55;;;20.60;70.70;;;;;;4968669;28;20486;-84
2021/09/11 02:53:57;;;;;;;6.57;4.47;;;20.50;70.70;;;;;;4984577;28;20259;-83
2021/09/11 02:56:23;;;;;;;9.93;3.40;;;20.60;70.80;;;;;;4969361;28;20176;-84
2021/09/11 02:58:49;;;;;;;7.47;4.35;;;20.40;70.70;;;;;;4971491;28;20179;-83
2021/09/11 03:01:14;;;;;;;4.90;3.53;;;20.50;71.10;;;;;;4988616;28;20180;-84
2021/09/11 03:03:40;;;;;;;4.37;3.30;;;20.60;70.70;;;;;;4970091;28;20275;-83
2021/09/11 03:06:06;;;;;;;4.97;4.20;;;20.60;70.80;;;;;;4986531;28;20231;-84
2021/09/11 03:08:31;;;;;;;11.30;3.97;;;20.70;70.40;;;;;;4969060;28;20254;-83
2021/09/11 03:10:57;;;;;;;7.30;3.97;;;20.60;70.40;;;;;;4987274;28;20214;-83
2021/09/11 03:13:23;;;;;;;6.53;4.37;;;20.60;70.60;;;;;;4974834;28;20679;-83
2021/09/11 03:15:50;;;;;;;6.60;4.27;;;20.60;70.40;;;;;;4980530;28;20419;-83
2021/09/11 03:18:16;;;;;;;8.13;4.05;;;20.60;70.40;;;;;;4964720;28;20207;-83
2021/09/11 03:20:46;;;;;;;4.90;3.67;;;20.60;70.40;;;;;;4998016;28;20180;-83
2021/09/11 03:23:13;;;;;;;3.92;3.63;;;20.60;70.10;;;;;;4981986;28;20223;-83
2021/09/11 03:25:39;;;;;;;4.50;3.20;;;20.40;70.60;;;;;;4982310;28;20215;-83
2021/09/11 03:28:05;;;;;;;7.30;3.63;;;20.30;70.90;;;;;;4981672;28;20226;-83
2021/09/11 03:30:32;;;;;;;5.60;3.37;;;20.30;71.20;;;;;;4999651;28;20160;-83
2021/09/11 03:32:58;;;;;;;6.72;3.78;;;20.30;71.20;;;;;;4982899;28;20478;-82
2021/09/11 03:35:24;;;;;;;6.20;3.90;;;20.40;71.00;;;;;;4984075;28;20195;-84
2021/09/11 03:37:50;;;;;;;4.65;3.53;;;20.50;70.80;;;;;;5000830;28;20451;-82
2021/09/11 03:40:17;;;;;;;7.70;3.85;;;20.40;70.80;;;;;;4983666;28;20240;-82
2021/09/11 03:42:42;;;;;;;10.82;4.20;;;20.40;70.90;;;;;;4983369;28;20188;-82
2021/09/11 03:45:09;;;;;;;8.67;4.20;;;20.40;71.00;;;;;;5000505;28;20180;-82
2021/09/11 03:47:35;;;;;;;9.90;4.40;;;20.50;70.90;;;;;;5000440;28;20168;-83
2021/09/11 03:50:02;;;;;;;7.53;3.67;;;20.70;70.70;;;;;;4983298;28;20175;-82
2021/09/11 03:52:27;;;;;;;6.32;4.15;;;20.60;70.20;;;;;;4983631;28;20218;-83
2021/09/11 03:54:53;;;;;;;10.30;4.87;;;20.60;70.30;;;;;;4983726;28;20236;-82
2021/09/11 03:57:19;;;;;;;4.13;3.57;;;20.40;71.20;;;;;;4970093;28;20563;-83
2021/09/11 03:59:44;;;;;;;4.33;3.93;;;20.60;70.60;;;;;;4983546;28;20176;-83
2021/09/11 04:02:10;;;;;;;7.53;4.50;;;20.70;70.20;;;;;;4964477;28;20198;-83
2021/09/11 04:04:36;;;;;;;4.63;3.53;;;20.70;70.00;;;;;;4982555;28;20294;-83
2021/09/11 04:07:01;;;;;;;8.23;3.77;;;20.60;70.20;;;;;;4983968;28;20541;-83
2021/09/11 04:09:27;;;;;;;6.90;3.93;;;20.60;70.40;;;;;;4966053;28;20176;-83
2021/09/11 04:11:53;;;;;;;5.07;3.40;;;20.50;70.40;;;;;;4981888;28;20207;-83
2021/09/11 04:14:19;;;;;;;7.63;3.83;;;20.30;70.60;;;;;;4982583;28;20489;-83
2021/09/11 04:16:44;;;;;;;4.03;3.63;;;20.30;71.00;;;;;;4966226;28;20219;-83
2021/09/11 04:19:10;;;;;;;5.57;3.90;;;20.30;71.10;;;;;;4965645;28;20523;-84
2021/09/11 04:21:36;;;;;;;6.90;3.70;;;20.30;71.30;;;;;;4964941;28;20179;-83
2021/09/11 04:24:06;;;;;;;7.10;3.57;;;20.30;71.20;;;;;;4968518;28;20237;-82
2021/09/11 04:26:32;;;;;;;6.75;4.10;;;20.40;71.20;;;;;;5002313;28;20206;-83
2021/09/11 04:28:58;;;;;;;6.88;3.80;;;20.50;71.10;;;;;;4987545;28;20190;-83
2021/09/11 04:31:24;;;;;;;6.68;4.53;;;20.50;70.80;;;;;;4970523;28;20635;-83
2021/09/11 04:33:50;;;;;;;5.20;3.83;;;20.30;70.90;;;;;;4987053;28;20229;-83
2021/09/11 04:36:16;;;;;;;6.20;4.40;;;20.30;71.30;;;;;;5005727;28;20175;-83
2021/09/11 04:38:42;;;;;;;9.40;4.43;;;20.20;71.50;;;;;;5003970;28;20178;-84
2021/09/11 04:41:08;;;;;;;6.90;4.40;;;20.10;71.70;;;;;;4987150;28;20233;-84
2021/09/11 04:43:34;;;;;;;6.35;3.30;;;20.30;71.80;;;;;;4987969;28;20199;-84
2021/09/11 04:46:01;;;;;;;4.83;4.00;;;20.50;71.10;;;;;;4987110;28;20191;-85
2021/09/11 04:48:26;;;;;;;7.18;3.97;;;20.40;71.00;;;;;;5008668;28;20422;-84
2021/09/11 04:50:52;;;;;;;5.53;3.77;;;20.30;71.20;;;;;;4992623;28;20313;-84
2021/09/11 04:53:18;;;;;;;4.23;3.30;;;20.40;71.20;;;;;;4993174;28;20486;-84
2021/09/11 04:55:44;;;;;;;4.30;3.70;;;20.30;71.10;;;;;;5009604;28;20441;-83
2021/09/11 04:58:10;;;;;;;7.50;4.00;;;20.20;71.30;;;;;;5008870;28;20167;-83
2021/09/11 05:00:37;;;;;;;12.00;3.90;;;20.20;71.60;;;;;;4999866;28;20191;-83
2021/09/11 05:03:02;;;;;;;9.23;3.65;;;20.40;71.30;;;;;;4988915;28;20191;-83
2021/09/11 05:05:28;;;;;;;5.37;3.90;;;20.30;71.40;;;;;;4990500;28;20199;-83
2021/09/11 05:07:55;;;;;;;4.87;3.57;;;20.50;71.50;;;;;;4990731;28;20662;-83
2021/09/11 05:10:21;;;;;;;12.45;5.75;;;20.40;71.10;;;;;;4973244;28;20187;-83
2021/09/11 05:12:47;;;;;;;4.83;3.93;;;20.20;71.50;;;;;;4989097;28;20200;-83
2021/09/11 05:15:13;;;;;;;5.43;4.35;;;20.40;71.30;;;;;;4967588;28;20238;-83
2021/09/11 05:17:38;;;;;;;12.30;5.07;;;20.20;71.50;;;;;;4982503;28;20179;-83
2021/09/11 05:20:05;;;;;;;3.80;3.40;;;20.30;71.90;;;;;;4965074;28;20175;-84
2021/09/11 05:22:31;;;;;;;11.85;4.10;;;20.40;71.50;;;;;;4983348;28;20196;-84
2021/09/11 05:24:57;;;;;;;10.00;4.13;;;20.30;71.90;;;;;;4977259;28;20187;-84
2021/09/11 05:27:23;;;;;;;10.43;4.90;;;20.50;71.90;;;;;;4984280;28;20179;-83
2021/09/11 05:29:48;;;;;;;8.07;4.60;;;20.50;71.50;;;;;;5001127;28;20933;-83
2021/09/11 05:32:14;;;;;;;10.53;4.03;;;20.40;71.60;;;;;;5000543;28;20203;-83
2021/09/11 05:34:40;;;;;;;13.30;4.33;;;20.30;71.80;;;;;;5001927;28;20238;-84
2021/09/11 05:37:06;;;;;;;5.83;4.50;;;20.30;72.10;;;;;;4986362;28;20693;-83
2021/09/11 05:39:32;;;;;;;12.20;5.07;;;20.30;72.10;;;;;;5000692;28;20435;-83
2021/09/11 05:41:58;;;;;;;12.48;5.70;;;20.30;72.20;;;;;;4983145;28;20414;-83
2021/09/11 05:44:24;;;;;;;13.83;4.50;;;20.30;72.40;;;;;;4984206;28;20263;-83
2021/09/11 05:46:49;;;;;;;6.70;4.20;;;20.30;72.50;;;;;;4986101;28;20214;-84
2021/09/11 05:49:15;;;;;;;8.50;4.90;;;20.40;72.10;;;;;;5003001;28;20418;-83
2021/09/11 05:51:41;;;;;;;7.00;4.33;;;20.30;72.30;;;;;;4982670;28;20238;-82
2021/09/11 05:54:07;;;;;;;7.00;4.70;;;20.40;72.10;;;;;;4984472;28;20195;-83
2021/09/11 05:56:32;;;;;;;7.73;4.57;;;20.50;72.10;;;;;;5004954;28;20175;-84
2021/09/11 05:58:58;;;;;;;11.23;5.03;;;20.40;72.00;;;;;;4988066;28;20430;-83
2021/09/11 06:01:24;;;;;;;6.63;4.63;;;20.40;72.20;;;;;;4959321;28;20180;-83
2021/09/11 06:03:49;;;;;;;10.20;5.20;;;20.70;72.00;;;;;;4967759;28;20564;-83
2021/09/11 06:06:15;;;;;;;9.63;5.40;;;20.50;71.70;;;;;;4964818;28;20639;-83
2021/09/11 06:08:41;;;;;;;10.20;4.70;;;20.60;71.90;;;;;;4981371;28;20184;-83
2021/09/11 06:11:08;;;;;;;11.00;6.77;;;20.60;71.80;;;;;;4982438;28;20219;-83
2021/09/11 06:13:34;;;;;;;9.02;5.07;;;20.70;72.00;;;;;;4963620;28;20187;-83
2021/09/11 06:16:02;;;;;;;13.17;5.17;;;20.80;71.90;;;;;;4964426;28;20180;-83
2021/09/11 06:18:29;;;;;;;9.55;5.00;;;21.00;71.40;;;;;;4964275;28;20431;-84
2021/09/11 06:20:55;;;;;;;8.73;4.55;;;21.10;71.00;;;;;;4985872;28;20176;-83
2021/09/11 06:23:22;;;;;;;8.73;5.82;;;21.10;70.80;;;;;;4967989;28;20600;-84
2021/09/11 06:25:48;;;;;;;8.38;5.22;;;21.00;70.80;;;;;;4985333;28;20183;-84
2021/09/11 06:28:14;;;;;;;7.10;4.10;;;20.90;71.10;;;;;;4980979;28;20184;-83
2021/09/11 06:30:39;;;;;;;8.00;5.00;;;21.10;70.80;;;;;;4967481;28;20190;-83
2021/09/11 06:33:06;;;;;;;12.07;5.30;;;21.30;70.60;;;;;;4967824;28;20220;-83
2021/09/11 06:35:32;;;;;;;8.25;5.07;;;21.10;69.90;;;;;;4967839;28;20422;-84
2021/09/11 06:37:57;;;;;;;9.30;4.53;;;20.90;71.00;;;;;;4968343;28;20192;-84
2021/09/11 06:40:23;;;;;;;13.57;5.70;;;20.90;71.70;;;;;;4968149;28;20270;-84
2021/09/11 06:42:49;;;;;;;8.80;4.97;;;20.90;71.80;;;;;;4984865;28;20208;-84
2021/09/11 06:45:15;;;;;;;9.50;4.70;;;21.00;71.40;;;;;;4969421;28;20251;-84
2021/09/11 06:47:41;;;;;;;8.20;5.43;;;21.10;71.30;;;;;;4968164;28;20283;-84
2021/09/11 06:50:07;;;;;;;9.93;6.10;;;21.20;71.00;;;;;;4969250;28;20199;-84
2021/09/11 06:52:33;;;;;;;9.10;5.33;;;21.30;70.80;;;;;;4967380;28;20687;-84
2021/09/11 06:54:59;;;;;;;10.33;5.17;;;21.40;70.30;;;;;;4985647;28;20524;-84
2021/09/11 06:57:24;;;;;;;9.23;5.17;;;21.40;70.00;;;;;;4968637;28;20180;-84
2021/09/11 06:59:50;;;;;;;11.47;5.57;;;21.40;70.30;;;;;;4984782;28;20498;-84
2021/09/11 07:02:16;;;;;;;7.40;5.07;;;21.40;70.30;;;;;;4985492;28;20207;-84
2021/09/11 07:04:42;;;;;;;12.83;5.50;;;21.40;70.40;;;;;;4989623;28;20663;-83
2021/09/11 07:07:08;;;;;;;10.00;5.43;;;21.40;70.30;;;;;;4992016;28;20180;-84
2021/09/11 07:09:34;;;;;;;8.90;4.93;;;21.40;70.40;;;;;;4974481;28;20184;-83
2021/09/11 07:12:00;;;;;;;10.50;6.47;;;21.40;70.40;;;;;;4989780;28;20490;-84
2021/09/11 07:14:26;;;;;;;8.97;6.53;;;21.40;70.30;;;;;;4971506;28;20180;-84
2021/09/11 07:16:52;;;;;;;10.17;5.10;;;21.40;70.40;;;;;;4971906;28;20187;-84
2021/09/11 07:19:18;;;;;;;8.20;5.37;;;21.50;70.30;;;;;;4954405;28;20423;-84
2021/09/11 07:21:44;;;;;;;10.47;5.30;;;21.60;70.10;;;;;;4985894;28;20279;-85
2021/09/11 07:24:09;;;;;;;7.90;4.80;;;21.60;69.90;;;;;;4989319;28;20564;-85
2021/09/11 07:26:35;;;;;;;8.30;5.30;;;21.70;69.80;;;;;;5006280;28;20189;-84
2021/09/11 07:29:03;;;;;;;8.03;5.80;;;21.80;69.40;;;;;;4988191;28;20183;-84
2021/09/11 07:31:30;;;;;;;9.63;4.87;;;21.80;69.20;;;;;;4987497;28;20282;-84
2021/09/11 07:33:56;;;;;;;5.33;4.77;;;21.70;69.10;;;;;;4990096;28;20466;-84
2021/09/11 07:36:22;;;;;;;11.63;6.53;;;21.70;69.50;;;;;;5010533;28;20506;-84
2021/09/11 07:38:48;;;;;;;12.07;5.70;;;21.80;69.40;;;;;;5011642;28;20203;-84
2021/09/11 07:41:13;;;;;;;10.23;5.87;;;21.80;69.10;;;;;;4994181;28;20186;-84
2021/09/11 07:43:39;;;;;;;5.80;4.07;;;21.90;68.90;;;;;;5006271;28;20187;-84
2021/09/11 07:46:05;;;;;;;11.00;5.17;;;21.90;69.00;;;;;;5007321;28;20202;-84
2021/09/11 07:48:30;;;;;;;9.10;5.43;;;22.00;68.80;;;;;;5005333;28;20207;-84
2021/09/11 07:50:56;;;;;;;11.97;5.30;;;21.90;68.60;;;;;;5007532;28;20254;-84
2021/09/11 07:53:22;;;;;;;10.77;5.10;;;22.10;68.30;;;;;;4994294;28;20223;-83
2021/09/11 07:55:48;;;;;;;10.90;5.37;;;22.10;68.30;;;;;;5009244;28;20186;-84
2021/09/11 07:58:14;;;;;;;7.00;4.23;;;22.10;68.20;;;;;;4991452;28;20179;-83
2021/09/11 08:00:39;;;;;;;7.97;4.53;;;22.20;67.70;;;;;;4989120;28;20431;-83
2021/09/11 08:03:05;;;;;;;6.20;5.57;;;22.30;67.80;;;;;;4973771;28;20200;-83
2021/09/11 08:05:31;;;;;;;9.83;5.77;;;22.40;67.40;;;;;;4986685;28;20172;-83
2021/09/11 08:07:56;;;;;;;14.27;4.60;;;22.20;67.50;;;;;;4966963;28;20172;-83
2021/09/11 08:10:22;;;;;;;8.60;4.70;;;22.30;67.50;;;;;;4967138;28;20175;-83
2021/09/11 08:12:49;;;;;;;7.03;4.90;;;22.40;67.30;;;;;;4966733;28;20215;-83
2021/09/11 08:15:18;;;;;;;7.43;5.47;;;22.30;67.10;;;;;;4966016;28;20771;-83
2021/09/11 08:17:46;;;;;;;8.90;5.47;;;22.40;67.10;;;;;;4967337;28;20443;-84
2021/09/11 08:20:13;;;;;;;7.53;4.67;;;22.40;67.10;;;;;;4968067;28;20522;-83
2021/09/11 08:22:40;;;;;;;5.77;5.00;;;22.50;66.90;;;;;;4966091;28;20812;-83
2021/09/11 08:25:06;;;;;;;9.40;4.83;;;22.70;66.50;;;;;;4996607;28;20422;-82
2021/09/11 08:27:32;;;;;;;9.57;6.20;;;22.80;66.00;;;;;;4970694;28;20430;-83
2021/09/11 08:29:58;;;;;;;6.47;5.30;;;22.80;65.80;;;;;;4991306;28;20423;-82
2021/09/11 08:32:24;;;;;;;9.80;5.53;;;23.00;65.70;;;;;;4997162;28;20227;-82
2021/09/11 08:34:52;;;;;;;7.70;4.77;;;23.00;65.00;;;;;;5001056;28;20434;-82
2021/09/11 08:37:18;;;;;;;6.23;4.73;;;23.00;65.00;;;;;;5018246;28;20160;-82
2021/09/11 08:39:44;;;;;;;9.93;4.83;;;23.10;65.00;;;;;;4982397;28;20430;-82
2021/09/11 08:42:11;;;;;;;6.40;5.40;;;23.30;64.50;;;;;;4981207;28;20463;-83
2021/09/11 08:44:37;;;;;;;5.50;5.00;;;23.30;64.00;;;;;;4998660;28;20179;-82
2021/09/11 08:47:06;;;;;;;7.80;4.80;;;23.30;64.10;;;;;;4981538;28;20442;-83
2021/09/11 08:49:32;;;;;;;8.90;5.07;;;23.10;64.50;;;;;;4981918;28;20491;-83
2021/09/11 08:51:57;;;;;;;9.30;4.80;;;23.10;64.70;;;;;;4997959;28;20474;-84
2021/09/11 08:54:26;;;;;;;6.90;4.33;;;22.80;64.80;;;;;;4982070;28;20462;-83
2021/09/11 08:56:51;;;;;;;13.40;5.47;;;22.80;65.10;;;;;;4981472;28;20426;-84
2021/09/11 08:59:19;;;;;;;5.13;4.60;;;22.70;65.30;;;;;;4998385;28;20450;-84
2021/09/11 09:02:02;;;;;;;6.07;4.90;;;22.70;65.50;;;;;;4972821;28;20191;-84
2021/09/11 09:04:50;;;;;;;11.63;6.37;;;22.50;65.70;;;;;;4984054;28;20406;-85
2021/09/11 09:07:38;;;;;;;17.13;6.00;;;22.50;66.10;;;;;;4970024;28;20518;-84
2021/09/11 09:10:16;;;;;;;8.13;4.60;;;22.60;66.00;;;;;;4969729;28;20420;-84
2021/09/11 09:12:45;;;;;;;6.10;4.20;;;22.70;66.10;;;;;;4969344;28;20479;-84
2021/09/11 09:15:20;;;;;;;12.70;4.97;;;22.80;65.80;;;;;;4968508;28;20438;-84
2021/09/11 09:17:51;;;;;;;8.63;4.53;;;23.00;65.50;;;;;;4987148;28;20867;-84
2021/09/11 09:20:24;;;;;;;5.10;3.87;;;23.00;65.40;;;;;;4985486;28;20408;-84
2021/09/11 09:23:17;;;;;;;6.90;4.57;;;23.10;65.40;;;;;;4983368;28;20466;-84
2021/09/11 09:25:44;;;;;;;5.13;4.57;;;22.90;65.60;;;;;;5000959;28;20902;-84
2021/09/11 09:28:14;;;;;;;8.00;4.20;;;22.80;65.80;;;;;;4985111;28;20474;-84
2021/09/11 09:30:46;;;;;;;8.90;6.20;;;22.60;66.20;;;;;;4986438;28;20407;-85
2021/09/11 09:33:21;;;;;;;5.23;4.13;;;22.50;66.80;;;;;;5002805;28;20530;-83
2021/09/11 09:35:47;;;;;;;5.60;4.47;;;22.40;67.30;;;;;;4969070;28;20437;-84
2021/09/11 09:38:14;;;;;;;6.10;4.53;;;22.30;67.70;;;;;;5002212;28;20410;-84
2021/09/11 09:40:53;;;;;;;7.13;4.70;;;22.10;68.30;;;;;;5002197;28;21060;-84
2021/09/11 09:43:32;;;;;;;6.47;4.93;;;22.30;68.50;;;;;;4982037;28;20446;-83
2021/09/11 09:46:02;;;;;;;15.47;5.37;;;22.50;68.20;;;;;;4981750;28;20426;-82
2021/09/11 09:48:28;;;;;;;8.73;4.13;;;22.70;68.00;;;;;;4999437;28;20422;-83
2021/09/11 09:51:11;;;;;;;7.70;4.23;;;22.80;67.50;;;;;;4982362;28;20521;-83
2021/09/11 09:53:38;;;;;;;7.03;4.70;;;22.80;67.30;;;;;;4981595;28;20461;-83
2021/09/11 09:56:05;;;;;;;6.90;5.20;;;23.00;67.40;;;;;;4999704;28;20747;-83
2021/09/11 09:58:32;;;;;;;6.40;4.97;;;23.00;67.40;;;;;;4999451;28;20411;-83
2021/09/11 10:00:59;;;;;;;5.60;4.70;;;23.00;67.30;;;;;;4972050;28;20455;-82
2021/09/11 10:03:25;;;;;;;12.40;5.80;;;23.00;67.00;;;;;;4961711;28;20457;-83
2021/09/11 10:05:57;;;;;;;8.20;6.17;;;23.10;67.00;;;;;;4982563;28;20510;-83
2021/09/11 10:08:25;;;;;;;5.97;5.37;;;23.20;67.20;;;;;;4985225;28;20418;-82
2021/09/11 10:10:51;;;;;;;7.47;5.40;;;23.10;66.70;;;;;;4967154;28;20470;-82
2021/09/11 10:13:19;;;;;;;12.93;5.23;;;23.30;66.20;;;;;;4965577;28;20427;-80
2021/09/11 10:15:55;;;;;;;8.33;5.87;;;23.40;65.60;;;;;;4967724;28;20478;-81
2021/09/11 10:18:30;;;;;;;12.73;7.77;;;23.70;65.50;;;;;;4969267;28;20961;-81
2021/09/11 10:21:39;;;;;;;9.17;5.73;;;23.90;66.10;;;;;;4967290;28;20429;-81
2021/09/11 10:24:17;;;;;;;9.10;5.00;;;23.90;66.00;;;;;;4966188;28;20442;-81
2021/09/11 10:26:49;;;;;;;6.20;5.60;;;24.00;65.90;;;;;;4998143;28;20402;-81
2021/09/11 10:29:44;;;;;;;6.03;5.43;;;24.10;65.30;;;;;;4998520;28;20414;-81
2021/09/11 10:32:44;;;;;;;8.10;4.60;;;24.00;64.40;;;;;;4996297;28;20817;-82
2021/09/11 10:35:17;;;;;;;8.23;4.73;;;23.90;64.40;;;;;;4986276;28;20439;-82
2021/09/11 10:37:57;;;;;;;10.43;5.10;;;23.80;64.30;;;;;;4980509;28;20453;-82
2021/09/11 10:40:41;;;;;;;6.23;4.50;;;23.70;64.40;;;;;;4984341;28;20402;-84
2021/09/11 10:43:10;;;;;;;8.13;4.80;;;23.70;64.90;;;;;;4985064;28;20468;-83
2021/09/11 10:45:44;;;;;;;7.00;5.17;;;23.70;64.90;;;;;;4967562;28;20446;-84
2021/09/11 10:48:28;;;;;;;5.40;4.90;;;23.60;64.70;;;;;;4967671;28;20439;-84
2021/09/11 10:50:54;;;;;;;11.87;5.47;;;23.70;66.10;;;;;;4967522;28;20455;-84
2021/09/11 10:53:21;;;;;;;8.90;5.40;;;23.70;67.00;;;;;;4983878;28;20434;-84
2021/09/11 10:55:48;;;;;;;12.10;5.40;;;23.50;67.70;;;;;;4985588;28;20447;-83
2021/09/11 10:58:24;;;;;;;8.93;5.30;;;23.50;68.30;;;;;;4968148;28;20487;-84
2021/09/11 11:01:01;;;;;;;8.00;4.43;;;23.40;68.40;;;;;;4968735;28;20423;-84
2021/09/11 11:03:28;;;;;;;5.17;4.63;;;23.40;68.20;;;;;;4992520;28;20501;-82
2021/09/11 11:06:04;;;;;;;5.20;4.80;;;23.60;67.70;;;;;;4976155;28;20426;-82
2021/09/11 11:08:31;;;;;;;4.20;3.90;;;23.70;68.00;;;;;;4995265;28;20446;-83
2021/09/11 11:10:58;;;;;;;6.17;4.90;;;24.00;66.60;;;;;;4993018;28;20502;-83
2021/09/11 11:13:24;;;;;;;5.37;4.27;;;23.90;66.10;;;;;;4974899;28;20513;-83
2021/09/11 11:15:55;;;;;;;5.07;4.57;;;23.70;65.70;;;;;;4993327;28;20423;-83
2021/09/11 11:18:21;;;;;;;5.57;5.07;;;23.90;65.90;;;;;;4977670;28;20411;-84
2021/09/11 11:20:47;;;;;;;4.97;4.47;;;23.90;65.10;;;;;;4976927;28;20443;-83
2021/09/11 11:23:13;;;;;;;5.73;3.83;;;23.80;64.30;;;;;;4980605;28;20518;-83
2021/09/11 11:25:39;;;;;;;4.10;3.60;;;24.00;65.00;;;;;;5013432;28;20183;-83
2021/09/11 11:28:10;;;;;;;3.77;3.50;;;24.10;64.70;;;;;;5000040;28;20410;-86
2021/09/11 11:30:40;;;;;;;4.90;4.50;;;24.30;64.20;;;;;;4977753;28;20427;-83
2021/09/11 11:33:07;;;;;;;10.83;5.67;;;24.30;64.40;;;;;;4989940;28;20905;-82
2021/09/11 11:35:37;;;;;;;11.77;7.23;;;24.10;65.40;;;;;;4973288;28;20407;-83
2021/09/11 11:38:03;;;;;;;5.90;5.10;;;24.10;66.70;;;;;;4996986;28;20418;-82
2021/09/11 11:40:29;;;;;;;11.87;4.73;;;23.90;68.00;;;;;;4988289;28;20538;-81
2021/09/11 11:43:01;;;;;;;5.13;4.50;;;23.90;68.70;;;;;;4977775;28;20310;-82
2021/09/11 11:45:27;;;;;;;11.43;4.80;;;24.10;69.10;;;;;;4970593;28;20260;-82
2021/09/11 11:48:13;;;;;;;7.67;5.27;;;24.30;68.70;;;;;;4958061;28;20427;-81
2021/09/11 11:50:41;;;;;;;6.13;4.83;;;24.40;68.10;;;;;;4957419;28;20473;-81
2021/09/11 11:53:12;;;;;;;6.70;4.67;;;24.50;67.70;;;;;;4991928;28;20480;-81
2021/09/11 11:55:52;;;;;;;8.40;5.13;;;24.50;67.40;;;;;;4959472;28;20427;-82
2021/09/11 11:58:19;;;;;;;5.77;4.77;;;24.40;66.70;;;;;;4974678;28;20482;-84
2021/09/11 12:00:54;;;;;;;6.23;4.83;;;24.40;67.10;;;;;;4975357;28;20491;-82
2021/09/11 12:03:45;;;;;;;7.37;4.90;;;24.60;67.20;;;;;;4967862;28;20439;-83
2021/09/11 12:06:20;;;;;;;6.50;5.63;;;24.40;66.60;;;;;;4984616;28;20498;-82
2021/09/11 12:08:48;;;;;;;5.10;4.70;;;24.40;66.60;;;;;;4966836;28;20423;-85
2021/09/11 12:11:21;;;;;;;8.63;4.63;;;24.70;66.30;;;;;;4968931;28;20549;-85
2021/09/11 12:13:49;;;;;;;6.60;5.07;;;24.80;65.70;;;;;;4986295;28;20435;-85
2021/09/11 12:16:16;;;;;;;6.10;4.53;;;24.90;65.60;;;;;;4969107;28;20424;-85
2021/09/11 12:18:42;;;;;;;5.57;4.83;;;25.00;65.10;;;;;;4985807;28;20415;-85
2021/09/11 12:21:11;;;;;;;5.77;5.23;;;25.10;64.60;;;;;;4966779;28;20493;-85
2021/09/11 12:23:38;;;;;;;5.17;4.03;;;25.20;63.20;;;;;;4984475;28;20281;-85
2021/09/11 12:26:08;;;;;;;6.27;4.83;;;25.10;63.60;;;;;;4968439;28;20427;-85
2021/09/11 12:28:46;;;;;;;8.40;6.40;;;25.10;63.70;;;;;;4967356;28;20422;-84
2021/09/11 12:31:19;;;;;;;7.20;5.50;;;24.80;64.60;;;;;;4984064;28;20268;-83
2021/09/11 12:34:08;;;;;;;6.50;5.63;;;24.80;65.70;;;;;;4986136;28;20451;-85
2021/09/11 12:36:39;;;;;;;6.63;5.10;;;24.20;66.30;;;;;;4967222;28;20895;-83
2021/09/11 12:39:26;;;;;;;6.63;5.03;;;23.90;68.30;;;;;;4982566;28;20422;-86
2021/09/11 12:41:54;;;;;;;5.70;5.10;;;23.50;70.20;;;;;;4976632;28;20780;-84
2021/09/11 12:44:25;;;;;;;6.93;5.50;;;23.20;72.00;;;;;;4987850;28;20439;-84
2021/09/11 12:46:56;;;;;;;8.80;6.37;;;23.10;73.00;;;;;;4969648;28;20852;-84
2021/09/11 12:49:24;;;;;;;11.27;5.60;;;23.10;73.30;;;;;;4983609;28;20451;-86